Hovedside
METAR-TAF:

METAR-TAF

Lufthavner :

Kittilä lufthavn

Kittilä, Finland

breddegrad: 67-42N, lengdegrad: 024-51E, høyde over havet: 196 m

Gjeldene værobservasjon

Denne rapporten ble laget for 19 minutter siden, klokken 03:50 UTC
Vind 3 kt fra Øst-nordøst, skiftende mellom Nord og Øst
Temperatur -21°C
Luftfuktighet 84%
Trykk 1006 hPa
Sikt 10 km eller mer
ingen skyer under 1500 m og ingen bygeskyer

METAR: EFKT 200350Z AUTO 06003KT 010V080 CAVOK M21/M23 Q1006

Tid: 06:09 (04:09 UTC)

Varsel

Denne rapporten ble laget for 1 time og 38 minutter siden, klokken 02:31 UTC
Varsel gyldig fra 20. klokken 03 UTC til 20. klokken 12 UTC
Vind 6 kt fra Sør
Sikt 10 km eller mer
ingen skyer under 1500 m og ingen bygeskyer
Blir
fra 20. klokken 09 UTC til 20. klokken 11 UTC
Sikt: 2500 m
Brutte skyer i en høyde av 1400 ft
lett snø

TAF: EFKT 200231Z 2003/2012 18006KT CAVOK BECMG 2009/2011 2500 -SN BKN014

Værobservasjoner og værvarsel for over 4000 flyplasser (METAR- og TAF-rapporter).

Tilgjengelige stasjoner er representert av de røde og gule prikkene på kartet.

Hold musepekeren over prikken for å se navnet på stasjonen.

Klikk så for å se værobservasjoner og -varsler.

For å forandre kartet kan du klikke på den grønne knappen med svart kryss for å zoome inn, på den grønne knappen med strek for å zoome ut, eller på de grønne pilene for å se tilstøtende kart.


METAR-TAF: